sensor_id;sensor_type;location;lat;lon;timestamp;P1;durP1;ratioP1;P2;durP2;ratioP2
10007;SDS011;5043;41.766;26.204;2023-03-21T00:00:52;29.20;;;19.15;;
10007;SDS011;5043;41.766;26.204;2023-03-21T00:03:22;29.67;;;20.00;;
10007;SDS011;5043;41.766;26.204;2023-03-21T00:05:48;31.90;;;19.67;;
10007;SDS011;5043;41.766;26.204;2023-03-21T00:08:17;29.35;;;19.17;;
10007;SDS011;5043;41.766;26.204;2023-03-21T00:10:46;33.28;;;19.35;;
10007;SDS011;5043;41.766;26.204;2023-03-21T00:13:12;34.47;;;19.58;;
10007;SDS011;5043;41.766;26.204;2023-03-21T00:15:40;28.95;;;19.25;;
10007;SDS011;5043;41.766;26.204;2023-03-21T00:18:18;37.88;;;20.58;;
10007;SDS011;5043;41.766;26.204;2023-03-21T00:20:54;32.90;;;19.70;;
10007;SDS011;5043;41.766;26.204;2023-03-21T00:23:22;33.35;;;19.30;;
10007;SDS011;5043;41.766;26.204;2023-03-21T00:25:48;32.97;;;19.13;;
10007;SDS011;5043;41.766;26.204;2023-03-21T00:28:14;30.38;;;18.27;;
10007;SDS011;5043;41.766;26.204;2023-03-21T00:30:39;28.60;;;17.88;;
10007;SDS011;5043;41.766;26.204;2023-03-21T00:33:05;30.98;;;19.30;;
10007;SDS011;5043;41.766;26.204;2023-03-21T00:35:31;27.38;;;18.15;;
10007;SDS011;5043;41.766;26.204;2023-03-21T00:37:56;32.87;;;20.17;;
10007;SDS011;5043;41.766;26.204;2023-03-21T00:40:21;30.92;;;18.50;;
10007;SDS011;5043;41.766;26.204;2023-03-21T00:42:47;28.27;;;17.48;;
10007;SDS011;5043;41.766;26.204;2023-03-21T00:45:12;35.70;;;18.35;;
10007;SDS011;5043;41.766;26.204;2023-03-21T00:47:39;31.98;;;17.25;;
10007;SDS011;5043;41.766;26.204;2023-03-21T00:50:05;28.85;;;16.55;;
10007;SDS011;5043;41.766;26.204;2023-03-21T00:52:31;20.08;;;16.73;;
10007;SDS011;5043;41.766;26.204;2023-03-21T00:54:57;28.98;;;18.02;;
10007;SDS011;5043;41.766;26.204;2023-03-21T00:57:22;30.63;;;18.20;;
10007;SDS011;5043;41.766;26.204;2023-03-21T00:59:47;24.60;;;18.45;;
10007;SDS011;5043;41.766;26.204;2023-03-21T01:02:13;33.40;;;18.00;;
10007;SDS011;5043;41.766;26.204;2023-03-21T01:04:51;24.27;;;16.70;;
10007;SDS011;5043;41.766;26.204;2023-03-21T01:07:18;35.15;;;17.35;;
10007;SDS011;5043;41.766;26.204;2023-03-21T01:09:43;23.58;;;15.52;;
10007;SDS011;5043;41.766;26.204;2023-03-21T01:12:09;23.90;;;14.18;;
10007;SDS011;5043;41.766;26.204;2023-03-21T01:14:35;21.92;;;13.55;;
10007;SDS011;5043;41.766;26.204;2023-03-21T01:17:01;23.80;;;13.68;;
10007;SDS011;5043;41.766;26.204;2023-03-21T01:19:28;29.00;;;14.88;;
10007;SDS011;5043;41.766;26.204;2023-03-21T01:21:55;25.15;;;13.35;;
10007;SDS011;5043;41.766;26.204;2023-03-21T01:24:21;20.45;;;14.23;;
10007;SDS011;5043;41.766;26.204;2023-03-21T01:26:47;20.88;;;14.30;;
10007;SDS011;5043;41.766;26.204;2023-03-21T01:29:12;25.42;;;12.98;;
10007;SDS011;5043;41.766;26.204;2023-03-21T01:31:38;19.40;;;12.48;;
10007;SDS011;5043;41.766;26.204;2023-03-21T01:34:03;16.63;;;13.65;;
10007;SDS011;5043;41.766;26.204;2023-03-21T01:36:29;21.75;;;13.98;;
10007;SDS011;5043;41.766;26.204;2023-03-21T01:38:54;27.45;;;12.82;;
10007;SDS011;5043;41.766;26.204;2023-03-21T01:41:24;14.77;;;12.15;;
10007;SDS011;5043;41.766;26.204;2023-03-21T01:43:53;26.67;;;12.05;;
10007;SDS011;5043;41.766;26.204;2023-03-21T01:51:55;27.05;;;15.88;;
10007;SDS011;5043;41.766;26.204;2023-03-21T01:54:28;27.40;;;15.52;;
10007;SDS011;5043;41.766;26.204;2023-03-21T01:56:56;19.63;;;11.07;;
10007;SDS011;5043;41.766;26.204;2023-03-21T01:59:28;22.15;;;10.93;;
10007;SDS011;5043;41.766;26.204;2023-03-21T02:01:59;15.98;;;10.07;;
10007;SDS011;5043;41.766;26.204;2023-03-21T02:04:32;17.75;;;11.02;;
10007;SDS011;5043;41.766;26.204;2023-03-21T02:07:06;19.60;;;12.32;;
10007;SDS011;5043;41.766;26.204;2023-03-21T02:09:37;19.38;;;11.13;;
10007;SDS011;5043;41.766;26.204;2023-03-21T02:12:06;21.42;;;10.38;;
10007;SDS011;5043;41.766;26.204;2023-03-21T02:14:33;19.48;;;10.07;;
10007;SDS011;5043;41.766;26.204;2023-03-21T02:39:28;29.15;;;12.45;;
10007;SDS011;5043;41.766;26.204;2023-03-21T02:47:52;30.90;;;14.05;;
10007;SDS011;5043;41.766;26.204;2023-03-21T02:50:25;25.80;;;14.65;;
10007;SDS011;5043;41.766;26.204;2023-03-21T02:52:55;36.00;;;17.65;;
10007;SDS011;5043;41.766;26.204;2023-03-21T02:55:26;37.47;;;15.15;;
10007;SDS011;5043;41.766;26.204;2023-03-21T02:57:56;34.33;;;15.48;;
10007;SDS011;5043;41.766;26.204;2023-03-21T03:00:26;34.47;;;16.13;;
10007;SDS011;5043;41.766;26.204;2023-03-21T03:02:55;34.75;;;16.85;;
10007;SDS011;5043;41.766;26.204;2023-03-21T03:05:25;21.58;;;14.80;;
10007;SDS011;5043;41.766;26.204;2023-03-21T03:16:42;24.10;;;14.95;;
10007;SDS011;5043;41.766;26.204;2023-03-21T03:19:14;28.60;;;16.40;;
10007;SDS011;5043;41.766;26.204;2023-03-21T03:22:05;27.25;;;17.17;;
10007;SDS011;5043;41.766;26.204;2023-03-21T03:24:41;30.77;;;16.88;;
10007;SDS011;5043;41.766;26.204;2023-03-21T03:27:17;26.58;;;16.95;;
10007;SDS011;5043;41.766;26.204;2023-03-21T03:29:48;30.90;;;17.20;;
10007;SDS011;5043;41.766;26.204;2023-03-21T03:32:24;33.33;;;17.08;;
10007;SDS011;5043;41.766;26.204;2023-03-21T03:34:55;28.50;;;16.20;;
10007;SDS011;5043;41.766;26.204;2023-03-21T03:37:23;27.65;;;15.35;;
10007;SDS011;5043;41.766;26.204;2023-03-21T03:39:56;22.77;;;15.45;;
10007;SDS011;5043;41.766;26.204;2023-03-21T03:42:30;23.27;;;13.30;;
10007;SDS011;5043;41.766;26.204;2023-03-21T03:45:00;19.38;;;14.25;;
10007;SDS011;5043;41.766;26.204;2023-03-21T03:47:39;21.25;;;15.50;;
10007;SDS011;5043;41.766;26.204;2023-03-21T03:50:07;25.95;;;15.35;;
10007;SDS011;5043;41.766;26.204;2023-03-21T03:52:54;25.88;;;15.60;;
10007;SDS011;5043;41.766;26.204;2023-03-21T03:55:23;35.00;;;17.88;;
10007;SDS011;5043;41.766;26.204;2023-03-21T03:57:51;54.95;;;33.97;;
10007;SDS011;5043;41.766;26.204;2023-03-21T04:00:17;45.15;;;26.60;;
10007;SDS011;5043;41.766;26.204;2023-03-21T04:02:43;29.48;;;20.02;;
10007;SDS011;5043;41.766;26.204;2023-03-21T04:05:10;21.83;;;15.75;;
10007;SDS011;5043;41.766;26.204;2023-03-21T04:07:36;22.38;;;14.60;;
10007;SDS011;5043;41.766;26.204;2023-03-21T04:10:02;25.58;;;15.13;;
10007;SDS011;5043;41.766;26.204;2023-03-21T04:12:29;27.98;;;16.08;;
10007;SDS011;5043;41.766;26.204;2023-03-21T04:14:55;22.48;;;14.20;;
10007;SDS011;5043;41.766;26.204;2023-03-21T04:17:20;23.02;;;15.15;;
10007;SDS011;5043;41.766;26.204;2023-03-21T04:19:46;24.13;;;16.40;;
10007;SDS011;5043;41.766;26.204;2023-03-21T04:22:12;25.15;;;16.77;;
10007;SDS011;5043;41.766;26.204;2023-03-21T04:24:38;27.73;;;16.58;;
10007;SDS011;5043;41.766;26.204;2023-03-21T04:27:04;22.13;;;16.80;;
10007;SDS011;5043;41.766;26.204;2023-03-21T04:29:30;27.63;;;16.73;;
10007;SDS011;5043;41.766;26.204;2023-03-21T04:31:57;65.25;;;46.35;;
10007;SDS011;5043;41.766;26.204;2023-03-21T04:34:23;35.42;;;24.50;;
10007;SDS011;5043;41.766;26.204;2023-03-21T04:36:52;41.00;;;27.08;;
10007;SDS011;5043;41.766;26.204;2023-03-21T04:39:18;30.50;;;21.58;;
10007;SDS011;5043;41.766;26.204;2023-03-21T04:41:45;28.45;;;20.67;;
10007;SDS011;5043;41.766;26.204;2023-03-21T04:44:11;35.30;;;20.83;;
10007;SDS011;5043;41.766;26.204;2023-03-21T04:46:37;28.42;;;19.23;;
10007;SDS011;5043;41.766;26.204;2023-03-21T04:49:03;25.15;;;17.63;;
10007;SDS011;5043;41.766;26.204;2023-03-21T04:51:31;29.75;;;17.52;;
10007;SDS011;5043;41.766;26.204;2023-03-21T04:53:56;30.30;;;17.73;;
10007;SDS011;5043;41.766;26.204;2023-03-21T04:56:25;25.23;;;17.73;;
10007;SDS011;5043;41.766;26.204;2023-03-21T04:59:00;28.23;;;17.40;;
10007;SDS011;5043;41.766;26.204;2023-03-21T05:01:27;29.33;;;18.83;;
10007;SDS011;5043;41.766;26.204;2023-03-21T05:03:59;31.75;;;20.35;;
10007;SDS011;5043;41.766;26.204;2023-03-21T05:06:25;29.75;;;22.67;;
10007;SDS011;5043;41.766;26.204;2023-03-21T05:08:53;33.90;;;23.98;;
10007;SDS011;5043;41.766;26.204;2023-03-21T05:11:40;37.05;;;22.35;;
10007;SDS011;5043;41.766;26.204;2023-03-21T05:14:06;29.95;;;18.67;;
10007;SDS011;5043;41.766;26.204;2023-03-21T05:16:33;26.63;;;18.85;;
10007;SDS011;5043;41.766;26.204;2023-03-21T05:19:00;28.55;;;20.88;;
10007;SDS011;5043;41.766;26.204;2023-03-21T05:21:30;37.77;;;23.77;;
10007;SDS011;5043;41.766;26.204;2023-03-21T05:24:06;39.80;;;24.05;;
10007;SDS011;5043;41.766;26.204;2023-03-21T05:26:36;38.85;;;24.77;;
10007;SDS011;5043;41.766;26.204;2023-03-21T05:29:02;42.33;;;25.77;;
10007;SDS011;5043;41.766;26.204;2023-03-21T05:31:28;47.83;;;27.77;;
10007;SDS011;5043;41.766;26.204;2023-03-21T05:33:54;36.70;;;24.00;;
10007;SDS011;5043;41.766;26.204;2023-03-21T05:36:19;32.28;;;19.33;;
10007;SDS011;5043;41.766;26.204;2023-03-21T05:38:45;26.55;;;17.75;;
10007;SDS011;5043;41.766;26.204;2023-03-21T05:41:11;26.92;;;18.33;;
10007;SDS011;5043;41.766;26.204;2023-03-21T05:43:37;27.10;;;18.33;;
10007;SDS011;5043;41.766;26.204;2023-03-21T05:46:02;30.88;;;21.00;;
10007;SDS011;5043;41.766;26.204;2023-03-21T05:48:28;33.25;;;21.23;;
10007;SDS011;5043;41.766;26.204;2023-03-21T05:50:53;35.65;;;21.40;;
10007;SDS011;5043;41.766;26.204;2023-03-21T05:53:19;34.08;;;20.45;;
10007;SDS011;5043;41.766;26.204;2023-03-21T05:55:44;40.38;;;21.02;;
10007;SDS011;5043;41.766;26.204;2023-03-21T05:58:10;33.17;;;21.85;;
10007;SDS011;5043;41.766;26.204;2023-03-21T06:00:35;35.92;;;21.58;;
10007;SDS011;5043;41.766;26.204;2023-03-21T06:03:01;38.92;;;23.58;;
10007;SDS011;5043;41.766;26.204;2023-03-21T06:05:26;34.30;;;22.38;;
10007;SDS011;5043;41.766;26.204;2023-03-21T06:07:52;38.47;;;24.33;;
10007;SDS011;5043;41.766;26.204;2023-03-21T06:10:17;37.97;;;23.55;;
10007;SDS011;5043;41.766;26.204;2023-03-21T06:12:43;37.75;;;23.88;;
10007;SDS011;5043;41.766;26.204;2023-03-21T06:15:09;42.47;;;24.63;;
10007;SDS011;5043;41.766;26.204;2023-03-21T06:17:34;47.60;;;25.40;;
10007;SDS011;5043;41.766;26.204;2023-03-21T06:20:00;39.60;;;23.67;;
10007;SDS011;5043;41.766;26.204;2023-03-21T06:22:26;37.70;;;25.67;;
10007;SDS011;5043;41.766;26.204;2023-03-21T06:24:52;38.10;;;23.88;;
10007;SDS011;5043;41.766;26.204;2023-03-21T06:27:17;40.53;;;25.45;;
10007;SDS011;5043;41.766;26.204;2023-03-21T06:29:43;42.88;;;25.90;;
10007;SDS011;5043;41.766;26.204;2023-03-21T06:32:10;43.83;;;26.42;;
10007;SDS011;5043;41.766;26.204;2023-03-21T06:34:36;49.10;;;28.90;;
10007;SDS011;5043;41.766;26.204;2023-03-21T06:37:01;46.72;;;25.80;;
10007;SDS011;5043;41.766;26.204;2023-03-21T06:39:28;41.45;;;24.55;;
10007;SDS011;5043;41.766;26.204;2023-03-21T06:41:55;41.17;;;24.52;;
10007;SDS011;5043;41.766;26.204;2023-03-21T06:44:22;39.90;;;23.50;;
10007;SDS011;5043;41.766;26.204;2023-03-21T06:46:48;36.90;;;24.33;;
10007;SDS011;5043;41.766;26.204;2023-03-21T06:49:14;41.50;;;24.63;;
10007;SDS011;5043;41.766;26.204;2023-03-21T06:51:40;39.92;;;25.73;;
10007;SDS011;5043;41.766;26.204;2023-03-21T06:54:06;38.45;;;27.55;;
10007;SDS011;5043;41.766;26.204;2023-03-21T06:56:31;48.67;;;27.33;;
10007;SDS011;5043;41.766;26.204;2023-03-21T06:58:56;35.35;;;25.38;;
10007;SDS011;5043;41.766;26.204;2023-03-21T07:01:22;50.03;;;27.23;;
10007;SDS011;5043;41.766;26.204;2023-03-21T07:03:48;34.92;;;24.27;;
10007;SDS011;5043;41.766;26.204;2023-03-21T07:06:14;35.85;;;25.08;;
10007;SDS011;5043;41.766;26.204;2023-03-21T07:08:40;38.40;;;26.10;;
10007;SDS011;5043;41.766;26.204;2023-03-21T07:11:06;46.13;;;26.88;;
10007;SDS011;5043;41.766;26.204;2023-03-21T07:13:32;39.67;;;23.77;;
10007;SDS011;5043;41.766;26.204;2023-03-21T07:15:58;40.00;;;24.45;;
10007;SDS011;5043;41.766;26.204;2023-03-21T07:18:24;45.53;;;26.05;;
10007;SDS011;5043;41.766;26.204;2023-03-21T07:20:50;41.05;;;25.80;;
10007;SDS011;5043;41.766;26.204;2023-03-21T07:23:19;41.63;;;24.75;;
10007;SDS011;5043;41.766;26.204;2023-03-21T07:25:47;42.75;;;25.63;;
10007;SDS011;5043;41.766;26.204;2023-03-21T07:28:14;43.92;;;25.92;;
10007;SDS011;5043;41.766;26.204;2023-03-21T07:30:40;44.13;;;25.80;;
10007;SDS011;5043;41.766;26.204;2023-03-21T07:33:06;36.85;;;25.25;;
10007;SDS011;5043;41.766;26.204;2023-03-21T07:35:32;42.97;;;25.85;;
10007;SDS011;5043;41.766;26.204;2023-03-21T07:37:58;39.78;;;25.45;;
10007;SDS011;5043;41.766;26.204;2023-03-21T07:40:23;41.90;;;26.23;;
10007;SDS011;5043;41.766;26.204;2023-03-21T07:42:49;36.55;;;25.20;;
10007;SDS011;5043;41.766;26.204;2023-03-21T07:45:15;40.20;;;27.17;;
10007;SDS011;5043;41.766;26.204;2023-03-21T07:47:45;40.38;;;26.70;;
10007;SDS011;5043;41.766;26.204;2023-03-21T07:50:10;46.78;;;25.23;;
10007;SDS011;5043;41.766;26.204;2023-03-21T07:52:36;44.47;;;26.08;;
10007;SDS011;5043;41.766;26.204;2023-03-21T07:55:02;42.55;;;25.98;;
10007;SDS011;5043;41.766;26.204;2023-03-21T07:57:33;45.53;;;24.75;;
10007;SDS011;5043;41.766;26.204;2023-03-21T07:59:59;52.17;;;26.77;;
10007;SDS011;5043;41.766;26.204;2023-03-21T08:02:25;39.80;;;24.30;;
10007;SDS011;5043;41.766;26.204;2023-03-21T08:04:51;37.20;;;22.98;;
10007;SDS011;5043;41.766;26.204;2023-03-21T08:07:16;45.75;;;24.10;;
10007;SDS011;5043;41.766;26.204;2023-03-21T08:09:42;36.15;;;23.10;;
10007;SDS011;5043;41.766;26.204;2023-03-21T08:12:08;36.70;;;22.30;;
10007;SDS011;5043;41.766;26.204;2023-03-21T08:14:35;40.38;;;22.90;;
10007;SDS011;5043;41.766;26.204;2023-03-21T08:17:01;41.33;;;23.98;;
10007;SDS011;5043;41.766;26.204;2023-03-21T08:19:27;37.08;;;24.13;;
10007;SDS011;5043;41.766;26.204;2023-03-21T08:21:52;39.08;;;23.73;;
10007;SDS011;5043;41.766;26.204;2023-03-21T08:24:18;38.80;;;24.75;;
10007;SDS011;5043;41.766;26.204;2023-03-21T08:26:43;39.08;;;23.95;;
10007;SDS011;5043;41.766;26.204;2023-03-21T08:29:10;41.83;;;23.85;;
10007;SDS011;5043;41.766;26.204;2023-03-21T08:31:39;44.13;;;25.10;;
10007;SDS011;5043;41.766;26.204;2023-03-21T08:34:05;40.58;;;24.60;;
10007;SDS011;5043;41.766;26.204;2023-03-21T08:36:31;33.67;;;22.92;;
10007;SDS011;5043;41.766;26.204;2023-03-21T08:39:00;34.05;;;22.70;;
10007;SDS011;5043;41.766;26.204;2023-03-21T08:41:33;35.60;;;21.25;;
10007;SDS011;5043;41.766;26.204;2023-03-21T08:44:00;30.45;;;20.23;;
10007;SDS011;5043;41.766;26.204;2023-03-21T08:46:26;29.88;;;19.67;;
10007;SDS011;5043;41.766;26.204;2023-03-21T08:48:52;27.80;;;16.92;;
10007;SDS011;5043;41.766;26.204;2023-03-21T08:51:19;29.35;;;17.08;;
10007;SDS011;5043;41.766;26.204;2023-03-21T08:53:45;30.17;;;17.05;;
10007;SDS011;5043;41.766;26.204;2023-03-21T08:56:10;28.67;;;20.08;;
10007;SDS011;5043;41.766;26.204;2023-03-21T08:58:36;28.58;;;16.63;;
10007;SDS011;5043;41.766;26.204;2023-03-21T09:01:04;24.80;;;17.08;;
10007;SDS011;5043;41.766;26.204;2023-03-21T09:03:36;35.08;;;17.00;;
10007;SDS011;5043;41.766;26.204;2023-03-21T09:06:02;24.20;;;16.27;;
10007;SDS011;5043;41.766;26.204;2023-03-21T09:08:28;28.50;;;16.83;;
10007;SDS011;5043;41.766;26.204;2023-03-21T09:10:54;19.23;;;14.45;;
10007;SDS011;5043;41.766;26.204;2023-03-21T09:13:21;19.70;;;14.35;;
10007;SDS011;5043;41.766;26.204;2023-03-21T09:15:47;28.08;;;16.50;;
10007;SDS011;5043;41.766;26.204;2023-03-21T09:18:14;27.48;;;16.13;;
10007;SDS011;5043;41.766;26.204;2023-03-21T09:20:42;26.48;;;16.60;;
10007;SDS011;5043;41.766;26.204;2023-03-21T09:23:11;31.83;;;15.15;;
10007;SDS011;5043;41.766;26.204;2023-03-21T09:25:39;25.55;;;16.13;;
10007;SDS011;5043;41.766;26.204;2023-03-21T09:28:06;28.98;;;17.08;;
10007;SDS011;5043;41.766;26.204;2023-03-21T09:30:33;34.08;;;16.65;;
10007;SDS011;5043;41.766;26.204;2023-03-21T09:33:03;19.63;;;16.08;;
10007;SDS011;5043;41.766;26.204;2023-03-21T09:35:33;22.33;;;14.77;;
10007;SDS011;5043;41.766;26.204;2023-03-21T09:37:59;27.30;;;15.15;;
10007;SDS011;5043;41.766;26.204;2023-03-21T09:51:07;28.95;;;14.60;;
10007;SDS011;5043;41.766;26.204;2023-03-21T09:53:39;22.10;;;13.20;;
10007;SDS011;5043;41.766;26.204;2023-03-21T09:56:08;22.48;;;12.35;;
10007;SDS011;5043;41.766;26.204;2023-03-21T09:58:40;19.90;;;13.77;;
10007;SDS011;5043;41.766;26.204;2023-03-21T10:01:44;20.80;;;13.68;;
10007;SDS011;5043;41.766;26.204;2023-03-21T10:04:10;22.67;;;13.82;;
10007;SDS011;5043;41.766;26.204;2023-03-21T10:06:40;20.63;;;13.05;;
10007;SDS011;5043;41.766;26.204;2023-03-21T10:11:44;22.20;;;12.65;;
10007;SDS011;5043;41.766;26.204;2023-03-21T10:16:47;20.77;;;10.95;;
10007;SDS011;5043;41.766;26.204;2023-03-21T10:19:17;19.20;;;11.27;;
10007;SDS011;5043;41.766;26.204;2023-03-21T10:21:47;17.90;;;11.50;;
10007;SDS011;5043;41.766;26.204;2023-03-21T10:24:16;21.60;;;10.45;;
10007;SDS011;5043;41.766;26.204;2023-03-21T10:26:46;18.02;;;10.18;;
10007;SDS011;5043;41.766;26.204;2023-03-21T10:29:13;13.60;;;9.10;;
10007;SDS011;5043;41.766;26.204;2023-03-21T10:31:41;15.82;;;9.32;;
10007;SDS011;5043;41.766;26.204;2023-03-21T10:34:15;12.68;;;8.23;;
10007;SDS011;5043;41.766;26.204;2023-03-21T10:36:50;16.90;;;8.40;;
10007;SDS011;5043;41.766;26.204;2023-03-21T10:39:36;21.65;;;9.48;;
10007;SDS011;5043;41.766;26.204;2023-03-21T10:42:04;16.10;;;8.55;;
10007;SDS011;5043;41.766;26.204;2023-03-21T10:44:31;18.33;;;9.45;;
10007;SDS011;5043;41.766;26.204;2023-03-21T10:47:03;13.13;;;8.90;;
10007;SDS011;5043;41.766;26.204;2023-03-21T10:49:31;12.40;;;8.55;;
10007;SDS011;5043;41.766;26.204;2023-03-21T10:52:00;21.08;;;8.13;;
10007;SDS011;5043;41.766;26.204;2023-03-21T10:54:32;20.85;;;8.63;;
10007;SDS011;5043;41.766;26.204;2023-03-21T10:59:47;14.20;;;8.25;;
10007;SDS011;5043;41.766;26.204;2023-03-21T11:02:25;18.58;;;10.68;;
10007;SDS011;5043;41.766;26.204;2023-03-21T11:04:55;16.08;;;8.75;;
10007;SDS011;5043;41.766;26.204;2023-03-21T11:07:29;12.35;;;7.70;;
10007;SDS011;5043;41.766;26.204;2023-03-21T11:09:58;13.77;;;7.35;;
10007;SDS011;5043;41.766;26.204;2023-03-21T11:12:29;19.55;;;8.05;;
10007;SDS011;5043;41.766;26.204;2023-03-21T11:15:13;13.15;;;7.93;;
10007;SDS011;5043;41.766;26.204;2023-03-21T11:17:54;15.07;;;9.30;;
10007;SDS011;5043;41.766;26.204;2023-03-21T11:20:20;15.38;;;7.43;;
10007;SDS011;5043;41.766;26.204;2023-03-21T11:22:46;15.80;;;8.18;;
10007;SDS011;5043;41.766;26.204;2023-03-21T11:25:29;15.95;;;7.97;;
10007;SDS011;5043;41.766;26.204;2023-03-21T11:28:04;16.20;;;8.02;;
10007;SDS011;5043;41.766;26.204;2023-03-21T11:30:33;13.38;;;7.65;;
10007;SDS011;5043;41.766;26.204;2023-03-21T11:33:00;13.60;;;7.60;;
10007;SDS011;5043;41.766;26.204;2023-03-21T11:35:32;13.13;;;8.15;;
10007;SDS011;5043;41.766;26.204;2023-03-21T11:38:00;10.48;;;8.10;;
10007;SDS011;5043;41.766;26.204;2023-03-21T11:42:59;22.10;;;8.60;;
10007;SDS011;5043;41.766;26.204;2023-03-21T11:45:26;17.08;;;8.48;;
10007;SDS011;5043;41.766;26.204;2023-03-21T11:47:53;11.80;;;8.18;;
10007;SDS011;5043;41.766;26.204;2023-03-21T11:56:02;18.98;;;10.80;;
10007;SDS011;5043;41.766;26.204;2023-03-21T11:59:03;18.55;;;10.15;;
10007;SDS011;5043;41.766;26.204;2023-03-21T12:01:54;24.60;;;11.77;;
10007;SDS011;5043;41.766;26.204;2023-03-21T12:18:40;18.77;;;8.60;;
10007;SDS011;5043;41.766;26.204;2023-03-21T12:21:32;17.42;;;7.63;;
10007;SDS011;5043;41.766;26.204;2023-03-21T12:24:08;14.73;;;7.70;;
10007;SDS011;5043;41.766;26.204;2023-03-21T12:26:57;14.88;;;7.18;;
10007;SDS011;5043;41.766;26.204;2023-03-21T12:32:20;14.85;;;8.25;;
10007;SDS011;5043;41.766;26.204;2023-03-21T12:35:08;12.75;;;7.65;;
10007;SDS011;5043;41.766;26.204;2023-03-21T12:37:48;15.73;;;7.80;;
10007;SDS011;5043;41.766;26.204;2023-03-21T12:40:34;13.73;;;8.30;;
10007;SDS011;5043;41.766;26.204;2023-03-21T12:43:23;15.52;;;7.57;;
10007;SDS011;5043;41.766;26.204;2023-03-21T12:52:23;14.27;;;7.57;;
10007;SDS011;5043;41.766;26.204;2023-03-21T12:58:05;19.38;;;8.23;;
10007;SDS011;5043;41.766;26.204;2023-03-21T13:00:55;11.73;;;7.90;;
10007;SDS011;5043;41.766;26.204;2023-03-21T13:03:28;18.80;;;7.80;;
10007;SDS011;5043;41.766;26.204;2023-03-21T13:06:01;19.58;;;7.97;;
10007;SDS011;5043;41.766;26.204;2023-03-21T13:11:06;17.60;;;7.80;;
10007;SDS011;5043;41.766;26.204;2023-03-21T13:22:05;9.07;;;6.65;;
10007;SDS011;5043;41.766;26.204;2023-03-21T13:29:47;15.45;;;6.70;;
10007;SDS011;5043;41.766;26.204;2023-03-21T13:32:38;15.80;;;6.65;;
10007;SDS011;5043;41.766;26.204;2023-03-21T13:37:34;11.23;;;7.55;;
10007;SDS011;5043;41.766;26.204;2023-03-21T13:40:05;13.48;;;6.30;;
10007;SDS011;5043;41.766;26.204;2023-03-21T13:42:45;10.07;;;7.10;;
10007;SDS011;5043;41.766;26.204;2023-03-21T13:45:24;13.65;;;6.90;;
10007;SDS011;5043;41.766;26.204;2023-03-21T13:48:04;14.75;;;5.80;;
10007;SDS011;5043;41.766;26.204;2023-03-21T13:50:50;9.00;;;5.78;;
10007;SDS011;5043;41.766;26.204;2023-03-21T13:53:20;14.70;;;6.85;;
10007;SDS011;5043;41.766;26.204;2023-03-21T13:55:56;9.98;;;6.53;;
10007;SDS011;5043;41.766;26.204;2023-03-21T14:03:57;9.15;;;5.80;;
10007;SDS011;5043;41.766;26.204;2023-03-21T14:06:29;12.32;;;6.22;;
10007;SDS011;5043;41.766;26.204;2023-03-21T14:08:58;11.10;;;7.40;;
10007;SDS011;5043;41.766;26.204;2023-03-21T14:11:25;8.40;;;5.18;;
10007;SDS011;5043;41.766;26.204;2023-03-21T14:13:53;10.35;;;7.70;;
10007;SDS011;5043;41.766;26.204;2023-03-21T14:16:18;14.80;;;8.32;;
10007;SDS011;5043;41.766;26.204;2023-03-21T14:18:56;10.02;;;7.57;;
10007;SDS011;5043;41.766;26.204;2023-03-21T14:21:27;16.02;;;8.20;;
10007;SDS011;5043;41.766;26.204;2023-03-21T14:23:59;12.27;;;6.78;;
10007;SDS011;5043;41.766;26.204;2023-03-21T14:26:28;13.48;;;6.47;;
10007;SDS011;5043;41.766;26.204;2023-03-21T14:28:56;13.05;;;5.80;;
10007;SDS011;5043;41.766;26.204;2023-03-21T14:31:21;8.55;;;5.85;;
10007;SDS011;5043;41.766;26.204;2023-03-21T14:33:51;12.68;;;5.93;;
10007;SDS011;5043;41.766;26.204;2023-03-21T14:36:22;10.88;;;6.00;;
10007;SDS011;5043;41.766;26.204;2023-03-21T14:41:27;13.07;;;6.10;;
10007;SDS011;5043;41.766;26.204;2023-03-21T14:47:38;11.13;;;5.70;;
10007;SDS011;5043;41.766;26.204;2023-03-21T14:49:43;7.50;;;5.88;;
10007;SDS011;5043;41.766;26.204;2023-03-21T14:52:10;13.98;;;7.82;;
10007;SDS011;5043;41.766;26.204;2023-03-21T14:54:40;7.00;;;5.30;;
10007;SDS011;5043;41.766;26.204;2023-03-21T14:57:09;17.05;;;11.00;;
10007;SDS011;5043;41.766;26.204;2023-03-21T14:59:38;17.90;;;9.43;;
10007;SDS011;5043;41.766;26.204;2023-03-21T15:02:39;11.63;;;7.35;;
10007;SDS011;5043;41.766;26.204;2023-03-21T15:05:34;18.85;;;7.35;;
10007;SDS011;5043;41.766;26.204;2023-03-21T15:07:53;16.50;;;7.65;;
10007;SDS011;5043;41.766;26.204;2023-03-21T15:10:27;14.15;;;8.07;;
10007;SDS011;5043;41.766;26.204;2023-03-21T15:12:55;17.58;;;9.30;;
10007;SDS011;5043;41.766;26.204;2023-03-21T15:15:24;14.20;;;7.13;;
10007;SDS011;5043;41.766;26.204;2023-03-21T15:17:51;12.30;;;7.45;;
10007;SDS011;5043;41.766;26.204;2023-03-21T15:20:19;18.20;;;7.53;;
10007;SDS011;5043;41.766;26.204;2023-03-21T15:22:53;10.43;;;6.38;;
10007;SDS011;5043;41.766;26.204;2023-03-21T15:25:22;11.77;;;7.25;;
10007;SDS011;5043;41.766;26.204;2023-03-21T15:27:52;14.30;;;11.68;;
10007;SDS011;5043;41.766;26.204;2023-03-21T15:30:21;12.23;;;6.85;;
10007;SDS011;5043;41.766;26.204;2023-03-21T15:32:49;15.90;;;7.47;;
10007;SDS011;5043;41.766;26.204;2023-03-21T15:35:15;12.05;;;6.93;;
10007;SDS011;5043;41.766;26.204;2023-03-21T15:37:54;17.45;;;9.27;;
10007;SDS011;5043;41.766;26.204;2023-03-21T15:40:23;9.82;;;6.90;;
10007;SDS011;5043;41.766;26.204;2023-03-21T15:43:02;12.98;;;7.68;;
10007;SDS011;5043;41.766;26.204;2023-03-21T15:45:30;15.90;;;7.97;;
10007;SDS011;5043;41.766;26.204;2023-03-21T15:48:06;11.38;;;6.90;;
10007;SDS011;5043;41.766;26.204;2023-03-21T15:50:37;12.30;;;6.85;;
10007;SDS011;5043;41.766;26.204;2023-03-21T15:53:06;19.13;;;8.20;;
10007;SDS011;5043;41.766;26.204;2023-03-21T15:55:55;17.10;;;8.38;;
10007;SDS011;5043;41.766;26.204;2023-03-21T15:58:25;13.32;;;8.35;;
10007;SDS011;5043;41.766;26.204;2023-03-21T16:00:52;18.35;;;7.68;;
10007;SDS011;5043;41.766;26.204;2023-03-21T16:08:44;13.57;;;7.18;;
10007;SDS011;5043;41.766;26.204;2023-03-21T16:13:44;22.02;;;14.48;;
10007;SDS011;5043;41.766;26.204;2023-03-21T16:16:17;29.52;;;18.77;;
10007;SDS011;5043;41.766;26.204;2023-03-21T16:18:45;33.28;;;22.38;;
10007;SDS011;5043;41.766;26.204;2023-03-21T16:21:11;48.17;;;29.27;;
10007;SDS011;5043;41.766;26.204;2023-03-21T16:23:38;41.15;;;25.48;;
10007;SDS011;5043;41.766;26.204;2023-03-21T16:26:03;38.05;;;26.77;;
10007;SDS011;5043;41.766;26.204;2023-03-21T16:28:29;29.00;;;18.88;;
10007;SDS011;5043;41.766;26.204;2023-03-21T16:30:55;25.65;;;14.43;;
10007;SDS011;5043;41.766;26.204;2023-03-21T16:33:21;17.58;;;11.80;;
10007;SDS011;5043;41.766;26.204;2023-03-21T16:35:46;35.00;;;13.82;;
10007;SDS011;5043;41.766;26.204;2023-03-21T16:38:12;30.45;;;15.23;;
10007;SDS011;5043;41.766;26.204;2023-03-21T16:40:38;29.33;;;11.93;;
10007;SDS011;5043;41.766;26.204;2023-03-21T16:43:05;18.60;;;11.07;;
10007;SDS011;5043;41.766;26.204;2023-03-21T16:45:31;24.50;;;12.38;;
10007;SDS011;5043;41.766;26.204;2023-03-21T16:47:57;30.52;;;17.33;;
10007;SDS011;5043;41.766;26.204;2023-03-21T16:50:30;36.25;;;20.27;;
10007;SDS011;5043;41.766;26.204;2023-03-21T16:53:00;40.40;;;19.45;;